Weather History for KBLM - March, 2012

Change the Weather History Date:

Wednesday, March 7, 2012

  Actual Average Record
Temperature  
Mean Temperature 48 °F -  
Max Temperature 64 °F 43 °F 69 °F (2009)
Min Temperature 33 °F 29 °F 10 °F (2015)
Degree Days  
Heating Degree Days 16    
Moisture  
Dew Point 29 °F    
Average Humidity 50    
Maximum Humidity 81    
Minimum Humidity 26    
Precipitation  
Precipitation 0.03 in - - ()
Sea Level Pressure  
Sea Level Pressure 30.49 in    
Wind  
Wind Speed 10 mph (SW)    
Max Wind Speed 18 mph    
Max Gust Speed 26 mph    
Visibility 10 miles    
Events      
Averages and records for this station are not official NWS values.
T = Trace of Precipitation, MM = Missing Value Source: NWS Daily Summary

Daily Weather History Graph

Daily Weather History Graph

Search for Another Location

Airport or City:

Trip Planner

Search our weather history database for the weather conditions in past years. The results will help you decide how hot, cold, wet, or windy it might be!

Date:

Astronomy

Mar. 07, 2012 Rise Set
Actual Time 6:20 AM EST 5:55 PM EST
Civil Twilight 5:52 AM EST 6:22 PM EST
Nautical Twilight 5:21 AM EST 6:53 PM EST
Astronomical Twilight 4:49 AM EST 7:25 PM EST
Moon 5:28 PM EST (3/7) 5:28 AM EST (3/7)
Length of Visible Light 12h 29m
Length of Day
11h 35m
Waxing Gibbous, 99% of the Moon is Illuminated
Mar 7
Waxing Gibbous
Mar 8
Full
Mar 14
Last Quarter
Mar 22
New
Mar 30
First Quarter

Hourly Weather History & Observations

Time (EST) Temp. Windchill Dew Point Humidity Pressure Visibility Wind Dir Wind Speed Gust Speed Precip Events Conditions
12:15 AM 33.8 °F 26.4 °F 26.6 °F 75% 30.60 in 10.0 mi SSW 9.2 mph - N/A   Clear
12:35 AM 35.6 °F 28.0 °F 24.8 °F 65% 30.60 in 10.0 mi SSW 10.4 mph - N/A   Clear
12:55 AM 33.8 °F 27.0 °F 24.8 °F 70% 30.60 in 10.0 mi SSW 8.1 mph - N/A   Clear
1:15 AM 35.6 °F 28.6 °F 24.8 °F 65% 30.60 in 10.0 mi SW 9.2 mph - N/A   Clear
1:55 AM 35.6 °F 28.6 °F 24.8 °F 65% 30.59 in 10.0 mi SSW 9.2 mph - N/A   Clear
2:15 AM 35.6 °F 29.2 °F 24.8 °F 65% 30.58 in 10.0 mi SSW 8.1 mph - N/A   Clear
2:35 AM 35.6 °F 30.7 °F 26.6 °F 70% 30.58 in 10.0 mi SSW 5.8 mph - N/A   Clear
2:55 AM 35.6 °F 29.9 °F 26.6 °F 70% 30.57 in 10.0 mi SSW 6.9 mph - N/A   Clear
3:15 AM 35.6 °F 28.6 °F 28.4 °F 75% 30.56 in 10.0 mi SSW 9.2 mph - N/A   Clear
3:35 AM 35.6 °F 28.0 °F 28.4 °F 75% 30.56 in 10.0 mi SSW 10.4 mph - N/A   Clear
3:55 AM 35.6 °F 29.9 °F 28.4 °F 75% 30.56 in 10.0 mi SSW 6.9 mph - N/A   Clear
4:15 AM 35.6 °F 30.7 °F 28.4 °F 75% 30.56 in 10.0 mi SSW 5.8 mph - N/A   Clear
4:55 AM 35.6 °F 29.2 °F 28.4 °F 75% 30.55 in 10.0 mi SSW 8.1 mph - N/A   Clear
5:15 AM 35.6 °F 29.2 °F 30.2 °F 81% 30.55 in 10.0 mi SSW 8.1 mph - N/A   Clear
5:35 AM 35.6 °F 30.7 °F 28.4 °F 75% 30.55 in 10.0 mi SSW 5.8 mph - N/A   Clear
5:55 AM 37.4 °F 32.1 °F 28.4 °F 70% 30.55 in 10.0 mi SW 6.9 mph - N/A   Clear
6:15 AM 37.4 °F 32.1 °F 28.4 °F 70% 30.55 in 10.0 mi SW 6.9 mph - N/A   Clear
6:35 AM 37.4 °F 30.3 °F 28.4 °F 70% 30.55 in 10.0 mi SW 10.4 mph - N/A   Clear
6:55 AM 37.4 °F 30.8 °F 28.4 °F 70% 30.55 in 10.0 mi SSW 9.2 mph - N/A   Clear
7:15 AM 37.4 °F 30.8 °F 28.4 °F 70% 30.55 in 10.0 mi SSW 9.2 mph - N/A   Clear
7:35 AM 39.2 °F 32.5 °F 28.4 °F 65% 30.56 in 10.0 mi SW 10.4 mph - N/A   Clear
7:55 AM 39.2 °F 31.6 °F 28.4 °F 65% 30.56 in 10.0 mi SW 12.7 mph - N/A   Clear
8:15 AM 41.0 °F 34.7 °F 30.2 °F 65% 30.56 in 10.0 mi SW 10.4 mph - N/A   Clear
8:35 AM 42.8 °F 37.0 °F 30.2 °F 61% 30.56 in 10.0 mi SW 10.4 mph - N/A   Clear
8:55 AM 44.6 °F 39.7 °F 30.2 °F 57% 30.56 in 10.0 mi SW 9.2 mph 16.1 mph N/A   Clear
9:15 AM 46.4 °F 40.4 °F 30.2 °F 53% 30.55 in 10.0 mi WSW 13.8 mph 18.4 mph N/A   Clear
9:35 AM 48.2 °F - 30.2 °F 50% 30.55 in 10.0 mi WSW 12.7 mph 17.3 mph N/A   Clear
9:55 AM 51.8 °F - 30.2 °F 44% 30.54 in 10.0 mi SW 11.5 mph 20.7 mph N/A   Clear
10:15 AM 51.8 °F - 30.2 °F 44% 30.54 in 10.0 mi WSW 11.5 mph 18.4 mph N/A   Clear
10:35 AM 53.6 °F - 30.2 °F 41% 30.53 in 10.0 mi WSW 13.8 mph 20.7 mph N/A   Clear
10:55 AM 53.6 °F - 30.2 °F 41% 30.52 in 10.0 mi SW 17.3 mph 23.0 mph N/A   Clear
11:15 AM 55.4 °F - 28.4 °F 36% 30.50 in 10.0 mi WSW 18.4 mph 25.3 mph N/A   Clear
11:35 AM 57.2 °F - 30.2 °F 36% 30.49 in 8.0 mi WSW 15.0 mph 25.3 mph 0.03 in   Clear
11:55 AM 60.8 °F - 30.2 °F 31% 30.48 in 10.0 mi WSW 16.1 mph 21.9 mph 0.03 in   Clear
12:15 PM 60.8 °F - 28.4 °F 29% 30.47 in 10.0 mi SW 15.0 mph 23.0 mph N/A   Clear
12:35 PM 62.6 °F - 28.4 °F 27% 30.45 in 10.0 mi SW 15.0 mph 25.3 mph N/A   Clear
12:55 PM 62.6 °F - 28.4 °F 27% 30.44 in 10.0 mi WSW 15.0 mph 21.9 mph N/A   Clear
1:15 PM 62.6 °F - 28.4 °F 27% 30.43 in 10.0 mi SW 13.8 mph 26.5 mph N/A   Clear
1:35 PM 62.6 °F - 28.4 °F 27% 30.42 in 10.0 mi WSW 12.7 mph 23.0 mph N/A   Clear
1:55 PM 62.6 °F - 28.4 °F 27% 30.42 in 10.0 mi WSW 15.0 mph 21.9 mph N/A   Clear
2:15 PM 62.6 °F - 28.4 °F 27% 30.41 in 10.0 mi WSW 16.1 mph 20.7 mph N/A   Clear
2:35 PM 64.4 °F - 30.2 °F 28% 30.41 in 10.0 mi WSW 12.7 mph 19.6 mph N/A   Clear
2:55 PM 64.4 °F - 28.4 °F 26% 30.40 in 10.0 mi WSW 10.4 mph 20.7 mph N/A   Clear
3:15 PM 64.4 °F - 28.4 °F 26% 30.39 in 10.0 mi WSW 9.2 mph - N/A   Clear
3:35 PM 64.4 °F - 28.4 °F 26% 30.39 in 10.0 mi SW 10.4 mph 17.3 mph N/A   Clear
3:55 PM 64.4 °F - 28.4 °F 26% 30.39 in 10.0 mi SSW 11.5 mph 20.7 mph N/A   Clear
4:15 PM 64.4 °F - 28.4 °F 26% 30.38 in 10.0 mi SSW 12.7 mph 18.4 mph N/A   Clear
4:35 PM 62.6 °F - 28.4 °F 27% 30.38 in 10.0 mi SW 10.4 mph 19.6 mph N/A   Clear
4:55 PM 62.6 °F - 28.4 °F 27% 30.37 in 10.0 mi SW 12.7 mph 18.4 mph N/A   Clear
5:15 PM 60.8 °F - 30.2 °F 31% 30.37 in 10.0 mi SW 12.7 mph 17.3 mph N/A   Clear
5:35 PM 60.8 °F - 32.0 °F 34% 30.37 in 10.0 mi SW 16.1 mph 23.0 mph N/A   Clear
5:55 PM 59.0 °F - 33.8 °F 39% 30.38 in 10.0 mi SW 11.5 mph 16.1 mph N/A   Clear
6:15 PM 59.0 °F - 33.8 °F 39% 30.38 in 10.0 mi SSW 12.7 mph - N/A   Clear
6:35 PM 57.2 °F - 35.6 °F 44% 30.38 in 10.0 mi SW 13.8 mph 19.6 mph N/A   Clear
6:55 PM 57.2 °F - 37.4 °F 48% 30.38 in 10.0 mi SSW 10.4 mph 19.6 mph N/A   Clear
7:15 PM 57.2 °F - 37.4 °F 48% 30.38 in 10.0 mi SW 6.9 mph - N/A   Clear
7:35 PM 55.4 °F - 39.2 °F 54% 30.39 in 10.0 mi SSW 6.9 mph - N/A   Clear
7:55 PM 53.6 °F - 39.2 °F 58% 30.38 in 10.0 mi SSW 8.1 mph - N/A   Clear
8:15 PM 53.6 °F - 39.2 °F 58% 30.38 in 10.0 mi SSW 9.2 mph - N/A   Clear
8:35 PM 51.8 °F - 41.0 °F 67% 30.38 in 10.0 mi South 10.4 mph - N/A   Clear
8:55 PM 51.8 °F - 42.8 °F 71% 30.38 in 10.0 mi SSW 9.2 mph - N/A   Clear
9:15 PM 51.8 °F - 42.8 °F 71% 30.38 in 10.0 mi SSW 10.4 mph 16.1 mph N/A   Clear
9:35 PM 51.8 °F - 42.8 °F 71% 30.38 in 10.0 mi SSW 10.4 mph - N/A   Clear
9:55 PM 51.8 °F - 42.8 °F 71% 30.38 in 10.0 mi SSW 15.0 mph 18.4 mph N/A   Clear
10:15 PM 51.8 °F - 42.8 °F 71% 30.37 in 10.0 mi SW 13.8 mph 20.7 mph N/A   Clear
10:35 PM 51.8 °F - 42.8 °F 71% 30.36 in 10.0 mi SW 13.8 mph 20.7 mph N/A   Clear
10:55 PM 51.8 °F - 42.8 °F 71% 30.36 in 10.0 mi SSW 11.5 mph 20.7 mph N/A   Clear
11:15 PM 51.8 °F - 42.8 °F 71% 30.35 in 10.0 mi SSW 12.7 mph 16.1 mph N/A   Clear
11:35 PM 51.8 °F - 42.8 °F 71% 30.35 in 10.0 mi SSW 10.4 mph 19.6 mph N/A   Clear